Time;durP1;ratioP1;P1;durP2;ratioP2;P2;SDS_P1;SDS_P2;PMS_P1;PMS_P2;Temp;Humidity;BMP_temperature;BMP_pressure;BME280_temperature;BME280_humidity;BME280_pressure;Samples;Min_cycle;Max_cycle;Signal;HPM_P1;HPM_P2
2022/11/26 00:02:18;;;;;;;32.60;16.20;;;;;;;;;;5931533;24;20174;-93
2022/11/26 00:05:31;;;;;;;79.00;37.57;;;;;;;;;;5931409;24;20170;-90
2022/11/26 00:08:36;;;;;;;32.73;15.00;;;;;;;;;;5916057;24;20197;-94
2022/11/26 00:11:42;;;;;;;30.33;14.50;;;;;;;;;;5932712;23;20188;-91
2022/11/26 00:14:48;;;;;;;31.07;14.87;;;;;;;;;;5915923;24;20202;-92
2022/11/26 00:17:54;;;;;;;31.90;15.17;;;;;;;;;;5916866;24;20193;-91
2022/11/26 00:21:02;;;;;;;33.43;15.67;;;;;;;;;;5932714;24;20174;-93
2022/11/26 00:24:13;;;;;;;32.43;15.20;;;;;;;;;;5933513;23;20192;-91
2022/11/26 00:27:19;;;;;;;31.97;15.33;;;;;;;;;;5958221;23;20200;-91
2022/11/26 00:30:25;;;;;;;31.97;15.33;;;;;;;;;;6049942;23;20196;-92
2022/11/26 00:33:31;;;;;;;34.77;15.53;;;;;;;;;;6026353;23;20620;-92
2022/11/26 00:36:38;;;;;;;34.90;14.87;;;;;;;;;;6042009;23;20171;-93
2022/11/26 00:39:44;;;;;;;36.37;15.77;;;;;;;;;;6026334;23;20176;-93
2022/11/26 00:42:50;;;;;;;32.83;14.70;;;;;;;;;;6024735;23;20217;-93
2022/11/26 00:46:23;;;;;;;36.50;16.63;;;;;;;;;;6024968;23;20180;-94
2022/11/26 00:49:29;;;;;;;42.07;17.30;;;;;;;;;;6042231;23;20192;-92
2022/11/26 00:52:36;;;;;;;36.20;17.03;;;;;;;;;;6039819;23;20172;-91
2022/11/26 00:55:42;;;;;;;38.23;17.60;;;;;;;;;;6040358;23;20223;-91
2022/11/26 00:58:48;;;;;;;37.13;16.42;;;;;;;;;;6025243;23;20164;-93
2022/11/26 01:01:54;;;;;;;42.83;17.23;;;;;;;;;;6023682;23;20196;-94
2022/11/26 01:05:00;;;;;;;32.53;15.90;;;;;;;;;;6041115;23;20171;-92
2022/11/26 01:08:15;;;;;;;31.13;15.07;;;;;;;;;;6040492;23;20175;-92
2022/11/26 01:11:22;;;;;;;32.13;14.80;;;;;;;;;;6024514;23;20171;-91
2022/11/26 01:14:27;;;;;;;30.93;15.40;;;;;;;;;;6042131;23;20219;-90
2022/11/26 01:17:32;;;;;;;36.53;15.20;;;;;;;;;;6024174;23;20196;-92
2022/11/26 01:20:37;;;;;;;34.03;15.90;;;;;;;;;;6042427;23;20216;-93
2022/11/26 01:23:45;;;;;;;33.67;15.97;;;;;;;;;;6040808;23;20176;-91
2022/11/26 01:26:50;;;;;;;36.47;16.83;;;;;;;;;;6093289;23;20181;-90
2022/11/26 01:29:55;;;;;;;35.13;15.88;;;;;;;;;;6073641;23;20268;-92
2022/11/26 01:33:00;;;;;;;44.60;19.17;;;;;;;;;;6042187;23;20175;-93
2022/11/26 01:36:11;;;;;;;32.20;15.80;;;;;;;;;;6040728;23;20183;-90
2022/11/26 01:39:19;;;;;;;35.33;16.37;;;;;;;;;;6042016;23;20193;-94
2022/11/26 01:42:27;;;;;;;40.37;17.00;;;;;;;;;;6041725;23;20224;-94
2022/11/26 01:45:32;;;;;;;40.57;18.10;;;;;;;;;;6041953;23;20188;-92
2022/11/26 01:48:37;;;;;;;41.20;17.73;;;;;;;;;;6041964;23;20232;-94
2022/11/26 01:51:42;;;;;;;39.63;18.47;;;;;;;;;;6040939;23;20175;-92
2022/11/26 01:54:49;;;;;;;39.60;17.33;;;;;;;;;;6040972;23;20221;-93
2022/11/26 01:57:54;;;;;;;40.90;18.30;;;;;;;;;;6041134;23;20255;-92
2022/11/26 02:01:00;;;;;;;44.27;19.13;;;;;;;;;;6042260;23;20676;-91
2022/11/26 02:04:12;;;;;;;42.87;18.60;;;;;;;;;;6041237;23;20672;-91
2022/11/26 02:07:17;;;;;;;40.08;16.88;;;;;;;;;;6039728;23;20175;-92
2022/11/26 02:10:24;;;;;;;40.07;17.10;;;;;;;;;;6040275;23;20177;-96
2022/11/26 02:13:30;;;;;;;39.00;18.77;;;;;;;;;;6040310;23;20220;-92
2022/11/26 02:16:42;;;;;;;41.83;19.53;;;;;;;;;;6040928;23;20216;-91
2022/11/26 02:20:00;;;;;;;39.10;17.77;;;;;;;;;;6040467;23;20224;-93
2022/11/26 02:23:24;;;;;;;46.63;19.47;;;;;;;;;;6041030;23;20160;-91
2022/11/26 02:26:48;;;;;;;46.57;20.57;;;;;;;;;;6049627;23;20230;-93
2022/11/26 02:30:01;;;;;;;36.13;17.43;;;;;;;;;;6127045;23;20197;-92
2022/11/26 02:33:09;;;;;;;32.63;16.52;;;;;;;;;;6158626;23;20168;-90
2022/11/26 02:36:18;;;;;;;33.33;17.27;;;;;;;;;;6159622;23;20152;-93
2022/11/26 02:39:24;;;;;;;34.53;16.75;;;;;;;;;;6160142;23;20181;-93
2022/11/26 02:42:30;;;;;;;33.87;15.90;;;;;;;;;;6158654;23;20242;-92
2022/11/26 02:45:39;;;;;;;37.23;16.77;;;;;;;;;;6160267;23;20213;-92
2022/11/26 02:48:47;;;;;;;34.17;16.20;;;;;;;;;;6158244;23;20161;-94
2022/11/26 02:51:54;;;;;;;34.15;17.25;;;;;;;;;;6159402;23;20202;-93
2022/11/26 02:55:01;;;;;;;38.23;17.70;;;;;;;;;;6159810;23;20257;-93
2022/11/26 02:58:07;;;;;;;41.77;19.77;;;;;;;;;;6158822;23;20169;-92
2022/11/26 03:01:16;;;;;;;40.93;18.00;;;;;;;;;;6160510;23;20233;-91
2022/11/26 03:04:23;;;;;;;35.40;17.40;;;;;;;;;;6140905;23;20169;-93
2022/11/26 03:07:30;;;;;;;34.37;16.57;;;;;;;;;;6156847;23;20165;-91
2022/11/26 03:10:35;;;;;;;35.60;17.10;;;;;;;;;;6160127;23;20162;-91
2022/11/26 03:13:40;;;;;;;30.13;15.57;;;;;;;;;;6157186;23;20192;-91
2022/11/26 03:16:47;;;;;;;46.07;20.90;;;;;;;;;;6157326;23;20181;-92
2022/11/26 03:19:52;;;;;;;45.33;18.07;;;;;;;;;;6158375;23;20170;-93
2022/11/26 03:22:58;;;;;;;36.57;16.37;;;;;;;;;;6139473;23;20608;-92
2022/11/26 03:26:03;;;;;;;34.17;15.70;;;;;;;;;;6151714;23;20245;-92
2022/11/26 03:29:08;;;;;;;32.27;15.00;;;;;;;;;;6127956;23;20214;-91
2022/11/26 03:32:15;;;;;;;42.90;18.37;;;;;;;;;;6128913;23;20674;-91
2022/11/26 03:35:20;;;;;;;40.97;16.87;;;;;;;;;;6111601;23;20198;-93
2022/11/26 03:38:26;;;;;;;35.27;16.23;;;;;;;;;;6110231;23;20249;-93
2022/11/26 03:41:31;;;;;;;35.57;15.77;;;;;;;;;;6112463;23;20150;-93
2022/11/26 03:44:37;;;;;;;32.37;14.80;;;;;;;;;;6128734;23;20166;-92
2022/11/26 03:47:57;;;;;;;42.77;17.73;;;;;;;;;;6113038;23;20169;-92
2022/11/26 03:51:02;;;;;;;32.73;15.33;;;;;;;;;;6113512;23;20181;-94
2022/11/26 03:54:07;;;;;;;26.67;13.07;;;;;;;;;;6111715;23;20241;-91
2022/11/26 03:57:12;;;;;;;36.07;15.03;;;;;;;;;;6114448;23;20187;-94
2022/11/26 04:00:18;;;;;;;37.27;15.37;;;;;;;;;;6114687;23;20169;-93
2022/11/26 04:03:25;;;;;;;42.17;14.77;;;;;;;;;;6113494;23;20214;-89
2022/11/26 04:06:31;;;;;;;29.50;13.70;;;;;;;;;;6113487;23;20183;-91
2022/11/26 04:09:36;;;;;;;39.97;14.25;;;;;;;;;;6113363;23;20162;-90
2022/11/26 04:12:42;;;;;;;32.50;12.57;;;;;;;;;;6113945;23;20173;-90
2022/11/26 04:15:48;;;;;;;31.73;13.47;;;;;;;;;;6130795;23;20238;-94
2022/11/26 04:18:57;;;;;;;43.28;17.35;;;;;;;;;;6111180;23;20178;-91
2022/11/26 04:22:03;;;;;;;25.40;12.37;;;;;;;;;;6111580;23;20150;-92
2022/11/26 04:25:08;;;;;;;19.93;9.80;;;;;;;;;;6112374;23;20253;-94
2022/11/26 04:28:14;;;;;;;31.87;10.87;;;;;;;;;;6128738;23;20213;-90
2022/11/26 04:31:19;;;;;;;20.38;9.13;;;;;;;;;;6130290;23;20499;-92
2022/11/26 04:34:26;;;;;;;20.35;8.52;;;;;;;;;;6129812;23;20189;-89
2022/11/26 04:37:31;;;;;;;21.00;9.53;;;;;;;;;;6130652;23;20158;-92
2022/11/26 04:40:36;;;;;;;19.33;8.30;;;;;;;;;;6131329;23;20165;-91
2022/11/26 04:43:42;;;;;;;21.63;9.00;;;;;;;;;;6129714;23;20174;-93
2022/11/26 04:46:50;;;;;;;19.45;8.52;;;;;;;;;;6129950;23;20177;-93
2022/11/26 04:49:57;;;;;;;18.48;8.50;;;;;;;;;;6129842;23;20227;-91
2022/11/26 04:53:02;;;;;;;20.63;8.43;;;;;;;;;;6129823;23;20177;-91
2022/11/26 04:56:08;;;;;;;20.87;7.90;;;;;;;;;;6130913;23;20581;-90
2022/11/26 04:59:13;;;;;;;19.93;8.77;;;;;;;;;;6131097;23;20178;-91
2022/11/26 05:06:39;;;;;;;17.75;8.60;;;;;;;;;;6113415;23;20157;-91
2022/11/26 05:09:45;;;;;;;19.80;8.68;;;;;;;;;;6111939;23;20206;-93
2022/11/26 05:12:50;;;;;;;23.13;9.15;;;;;;;;;;6128726;23;20158;-91
2022/11/26 05:15:55;;;;;;;20.55;8.25;;;;;;;;;;6127290;23;20640;-92
2022/11/26 05:19:00;;;;;;;18.02;8.52;;;;;;;;;;6129160;23;20207;-92
2022/11/26 05:22:06;;;;;;;19.77;8.88;;;;;;;;;;6130206;23;20251;-93
2022/11/26 05:25:12;;;;;;;16.83;8.43;;;;;;;;;;6128357;23;20173;-89
2022/11/26 05:28:17;;;;;;;22.20;8.93;;;;;;;;;;6128766;23;20260;-91
2022/11/26 05:31:22;;;;;;;24.30;9.55;;;;;;;;;;6129804;23;20330;-92
2022/11/26 05:34:28;;;;;;;20.20;8.70;;;;;;;;;;6130692;23;20161;-94
2022/11/26 05:37:37;;;;;;;20.80;9.20;;;;;;;;;;6130259;23;20189;-92
2022/11/26 05:40:42;;;;;;;21.98;9.40;;;;;;;;;;6129570;23;20214;-93
2022/11/26 05:43:47;;;;;;;19.38;9.65;;;;;;;;;;6127446;23;20175;-93
2022/11/26 05:46:54;;;;;;;20.77;9.68;;;;;;;;;;6110679;23;20261;-92
2022/11/26 05:50:00;;;;;;;21.50;9.48;;;;;;;;;;6132935;23;20240;-90
2022/11/26 05:53:06;;;;;;;22.85;9.07;;;;;;;;;;6128640;23;20165;-89
2022/11/26 05:56:12;;;;;;;21.73;9.88;;;;;;;;;;6134790;23;20194;-93
2022/11/26 05:59:18;;;;;;;20.30;9.15;;;;;;;;;;6129384;23;20174;-94
2022/11/26 06:02:23;;;;;;;19.77;9.15;;;;;;;;;;6129126;23;20158;-92
2022/11/26 06:05:29;;;;;;;21.70;9.55;;;;;;;;;;6131193;23;20497;-92
2022/11/26 06:08:50;;;;;;;29.30;9.57;;;;;;;;;;6132307;23;20165;-90
2022/11/26 06:12:01;;;;;;;19.75;8.43;;;;;;;;;;6123119;23;20170;-92
2022/11/26 06:15:07;;;;;;;17.95;8.80;;;;;;;;;;6128646;23;20253;-91
2022/11/26 06:18:13;;;;;;;21.33;8.38;;;;;;;;;;6132785;23;20179;-89
2022/11/26 06:21:22;;;;;;;18.70;9.20;;;;;;;;;;6137184;23;20158;-90
2022/11/26 06:24:29;;;;;;;17.37;8.13;;;;;;;;;;6135701;23;20186;-90
2022/11/26 06:27:37;;;;;;;26.33;8.70;;;;;;;;;;6131124;23;20182;-92
2022/11/26 06:30:44;;;;;;;21.13;8.63;;;;;;;;;;6127167;23;20681;-93
2022/11/26 06:33:54;;;;;;;20.20;8.53;;;;;;;;;;6126619;23;20221;-92
2022/11/26 06:36:59;;;;;;;18.87;7.97;;;;;;;;;;6129298;23;20182;-95
2022/11/26 06:40:05;;;;;;;18.90;8.33;;;;;;;;;;6129124;23;20178;-91
2022/11/26 06:43:11;;;;;;;23.47;8.60;;;;;;;;;;6128132;23;20189;-92
2022/11/26 06:46:17;;;;;;;25.23;8.67;;;;;;;;;;6127417;23;20219;-93
2022/11/26 06:49:22;;;;;;;20.67;8.80;;;;;;;;;;6129330;23;20233;-94
2022/11/26 06:52:27;;;;;;;23.27;8.47;;;;;;;;;;6128054;23;20182;-92
2022/11/26 06:55:32;;;;;;;20.33;8.60;;;;;;;;;;6127545;23;20285;-94
2022/11/26 06:58:41;;;;;;;25.87;9.23;;;;;;;;;;6111207;23;20183;-92
2022/11/26 07:01:47;;;;;;;18.17;8.53;;;;;;;;;;6127942;23;20169;-92
2022/11/26 07:04:52;;;;;;;22.00;8.63;;;;;;;;;;6128664;23;20220;-91
2022/11/26 07:07:57;;;;;;;21.23;8.70;;;;;;;;;;6128471;23;20194;-92
2022/11/26 07:11:03;;;;;;;24.75;10.57;;;;;;;;;;6127986;23;20177;-91
2022/11/26 07:14:11;;;;;;;25.50;9.40;;;;;;;;;;6129495;23;20218;-92
2022/11/26 07:17:16;;;;;;;23.67;9.57;;;;;;;;;;6129159;23;20218;-93
2022/11/26 07:20:22;;;;;;;23.35;9.02;;;;;;;;;;6127454;23;20219;-94
2022/11/26 07:23:27;;;;;;;22.83;8.00;;;;;;;;;;6130839;23;20174;-94
2022/11/26 07:26:32;;;;;;;17.43;7.27;;;;;;;;;;6133280;23;20169;-94
2022/11/26 07:29:38;;;;;;;21.93;7.20;;;;;;;;;;6140417;23;20169;-92
2022/11/26 07:32:43;;;;;;;15.77;5.87;;;;;;;;;;6141474;23;20176;-92
2022/11/26 07:35:54;;;;;;;19.73;6.50;;;;;;;;;;6139936;23;20197;-94
2022/11/26 07:39:01;;;;;;;23.77;7.30;;;;;;;;;;6141765;23;20157;-93
2022/11/26 07:42:07;;;;;;;19.67;7.40;;;;;;;;;;6142068;23;20164;-94
2022/11/26 07:45:13;;;;;;;19.13;7.23;;;;;;;;;;6142095;23;20177;-91
2022/11/26 07:52:40;;;;;;;20.07;7.63;;;;;;;;;;6143141;23;20206;-92
2022/11/26 07:55:45;;;;;;;21.70;8.07;;;;;;;;;;6141004;23;20198;-94
2022/11/26 07:58:51;;;;;;;24.17;8.43;;;;;;;;;;6143164;23;20168;-92
2022/11/26 08:01:58;;;;;;;16.77;7.10;;;;;;;;;;6143030;23;20673;-93
2022/11/26 08:05:03;;;;;;;15.83;7.13;;;;;;;;;;6144314;23;20157;-91
2022/11/26 08:08:09;;;;;;;19.40;7.63;;;;;;;;;;6144718;23;20185;-94
2022/11/26 08:11:15;;;;;;;17.77;7.67;;;;;;;;;;6144084;23;20261;-92
2022/11/26 08:14:58;;;;;;;16.33;7.33;;;;;;;;;;6126437;23;20165;-93
2022/11/26 08:18:06;;;;;;;20.10;7.40;;;;;;;;;;6142728;23;20174;-93
2022/11/26 08:21:12;;;;;;;21.73;7.28;;;;;;;;;;6144802;23;20170;-93
2022/11/26 08:24:24;;;;;;;22.73;7.47;;;;;;;;;;6142828;23;20685;-93
2022/11/26 08:27:32;;;;;;;18.23;7.23;;;;;;;;;;6143495;23;20232;-92
2022/11/26 08:34:00;;;;;;;12.15;5.28;;;;;;;;;;6128006;23;20203;-94
2022/11/26 08:37:05;;;;;;;18.20;6.25;;;;;;;;;;6144915;23;20656;-93
2022/11/26 08:40:11;;;;;;;18.50;6.45;;;;;;;;;;6145333;23;20157;-90
2022/11/26 08:43:16;;;;;;;14.05;6.00;;;;;;;;;;6144498;23;20154;-93
2022/11/26 08:46:26;;;;;;;20.63;6.07;;;;;;;;;;6142941;23;20170;-92
2022/11/26 08:49:33;;;;;;;10.40;5.30;;;;;;;;;;6143481;23;20161;-93
2022/11/26 08:52:38;;;;;;;13.18;6.38;;;;;;;;;;6123333;23;20196;-91
2022/11/26 08:55:44;;;;;;;13.90;5.95;;;;;;;;;;6142335;23;20192;-94
2022/11/26 08:58:50;;;;;;;12.57;6.35;;;;;;;;;;6142014;23;20218;-93
2022/11/26 09:01:55;;;;;;;15.45;6.75;;;;;;;;;;6140442;23;20652;-93
2022/11/26 09:05:02;;;;;;;17.15;6.82;;;;;;;;;;6139890;23;20205;-94
2022/11/26 09:08:07;;;;;;;16.50;7.15;;;;;;;;;;6140450;23;20168;-93
2022/11/26 09:11:13;;;;;;;18.58;7.97;;;;;;;;;;6143533;23;20157;-93
2022/11/26 09:14:20;;;;;;;27.15;9.48;;;;;;;;;;6140188;23;20317;-91
2022/11/26 09:17:25;;;;;;;21.50;8.57;;;;;;;;;;6140299;23;20193;-93
2022/11/26 09:20:32;;;;;;;19.95;8.25;;;;;;;;;;6141797;23;20219;-93
2022/11/26 09:23:37;;;;;;;35.17;11.18;;;;;;;;;;6142603;23;20168;-92
2022/11/26 09:26:43;;;;;;;21.63;8.85;;;;;;;;;;6146907;23;20169;-92
2022/11/26 09:29:56;;;;;;;17.13;7.90;;;;;;;;;;6140633;23;20181;-93
2022/11/26 09:33:02;;;;;;;20.10;8.80;;;;;;;;;;6141282;23;20194;-93
2022/11/26 09:36:10;;;;;;;19.20;8.10;;;;;;;;;;6139871;23;20217;-92
2022/11/26 09:39:17;;;;;;;20.17;8.50;;;;;;;;;;6138166;23;20185;-91
2022/11/26 09:42:27;;;;;;;25.60;8.93;;;;;;;;;;6139840;23;20230;-93
2022/11/26 09:49:57;;;;;;;24.05;8.85;;;;;;;;;;6144532;23;20189;-91
2022/11/26 09:53:13;;;;;;;28.33;9.15;;;;;;;;;;6142408;23;20218;-90
2022/11/26 09:56:20;;;;;;;31.67;10.20;;;;;;;;;;6143339;23;20201;-91
2022/11/26 09:59:27;;;;;;;22.17;9.88;;;;;;;;;;6141226;23;20168;-90
2022/11/26 10:02:33;;;;;;;21.83;9.73;;;;;;;;;;6144467;23;20169;-93
2022/11/26 10:05:42;;;;;;;27.58;9.93;;;;;;;;;;6145071;23;20230;-93
2022/11/26 10:09:21;;;;;;;25.80;10.25;;;;;;;;;;6143839;23;20221;-92
2022/11/26 10:12:34;;;;;;;26.23;10.60;;;;;;;;;;6053152;23;20172;-92
2022/11/26 10:15:44;;;;;;;43.92;15.15;;;;;;;;;;6039774;23;20224;-91
2022/11/26 10:18:54;;;;;;;47.50;17.90;;;;;;;;;;6141864;23;20264;-92
2022/11/26 10:22:04;;;;;;;37.85;14.30;;;;;;;;;;6141352;23;20213;-92
2022/11/26 10:25:14;;;;;;;33.20;12.90;;;;;;;;;;6140647;23;20169;-91
2022/11/26 10:28:23;;;;;;;25.45;11.48;;;;;;;;;;6140538;23;20192;-93
2022/11/26 10:31:32;;;;;;;28.83;12.10;;;;;;;;;;6141979;23;20173;-94
2022/11/26 10:34:40;;;;;;;38.08;14.13;;;;;;;;;;6140563;23;20237;-94
2022/11/26 10:37:46;;;;;;;28.67;11.80;;;;;;;;;;6142852;23;20254;-91
2022/11/26 10:40:51;;;;;;;23.58;10.68;;;;;;;;;;6141217;23;20177;-95
2022/11/26 10:44:18;;;;;;;31.00;11.40;;;;;;;;;;6125050;23;20180;-92
2022/11/26 10:47:35;;;;;;;31.60;10.93;;;;;;;;;;6142919;23;20740;-93
2022/11/26 10:50:41;;;;;;;29.95;11.93;;;;;;;;;;6142673;23;20494;-91
2022/11/26 10:53:54;;;;;;;27.88;12.65;;;;;;;;;;6143755;23;20157;-92
2022/11/26 10:57:03;;;;;;;32.60;13.68;;;;;;;;;;6144773;23;20180;-92
2022/11/26 11:00:26;;;;;;;31.35;12.35;;;;;;;;;;6144121;23;20253;-91
2022/11/26 11:03:34;;;;;;;30.27;12.73;;;;;;;;;;6126606;23;20218;-91
2022/11/26 11:06:42;;;;;;;27.70;12.63;;;;;;;;;;6145228;23;20250;-92
2022/11/26 11:09:47;;;;;;;32.95;12.95;;;;;;;;;;6125719;23;20169;-92
2022/11/26 11:13:02;;;;;;;28.05;12.95;;;;;;;;;;6147141;23;20220;-91
2022/11/26 11:16:11;;;;;;;24.80;12.82;;;;;;;;;;6144482;23;20241;-90
2022/11/26 11:19:23;;;;;;;32.03;12.48;;;;;;;;;;6144885;23;20197;-91
2022/11/26 11:22:29;;;;;;;30.42;12.10;;;;;;;;;;6145477;23;20189;-91
2022/11/26 11:25:37;;;;;;;31.20;12.63;;;;;;;;;;6144940;23;20223;-92
2022/11/26 11:28:47;;;;;;;35.92;13.55;;;;;;;;;;6145462;23;20185;-94
2022/11/26 11:31:58;;;;;;;29.02;13.23;;;;;;;;;;6146277;23;20217;-93
2022/11/26 11:35:14;;;;;;;28.15;12.15;;;;;;;;;;6147820;23;20186;-91
2022/11/26 11:38:26;;;;;;;22.92;11.23;;;;;;;;;;6147889;23;20211;-91
2022/11/26 11:41:34;;;;;;;28.20;12.55;;;;;;;;;;6147332;23;20221;-94
2022/11/26 11:44:43;;;;;;;21.63;11.05;;;;;;;;;;6145473;23;20164;-93
2022/11/26 11:52:16;;;;;;;29.50;13.00;;;;;;;;;;6147479;23;20165;-93
2022/11/26 11:55:34;;;;;;;28.25;12.32;;;;;;;;;;6145133;23;20242;-92
2022/11/26 11:58:55;;;;;;;27.15;12.52;;;;;;;;;;6143610;23;20201;-91
2022/11/26 12:02:11;;;;;;;26.70;11.57;;;;;;;;;;6145429;23;20244;-92
2022/11/26 12:05:31;;;;;;;25.40;11.35;;;;;;;;;;6145305;23;20213;-92
2022/11/26 12:08:44;;;;;;;27.75;11.25;;;;;;;;;;6145784;23;20185;-91
2022/11/26 12:11:59;;;;;;;26.38;11.60;;;;;;;;;;6128917;23;20169;-92
2022/11/26 12:15:08;;;;;;;28.02;11.20;;;;;;;;;;6144775;23;20173;-91
2022/11/26 12:18:19;;;;;;;25.38;10.98;;;;;;;;;;6145516;23;20184;-91
2022/11/26 12:21:28;;;;;;;25.27;10.43;;;;;;;;;;6146135;23;20209;-93
2022/11/26 12:24:39;;;;;;;21.25;9.10;;;;;;;;;;6145293;23;20161;-91
2022/11/26 12:27:49;;;;;;;22.52;9.52;;;;;;;;;;6145118;23;20193;-91
2022/11/26 12:30:56;;;;;;;21.27;9.02;;;;;;;;;;6144899;23;20208;-89
2022/11/26 12:34:05;;;;;;;25.95;9.70;;;;;;;;;;6143897;23;20237;-92
2022/11/26 12:37:15;;;;;;;20.50;9.77;;;;;;;;;;6145597;23;20941;-94
2022/11/26 12:40:31;;;;;;;16.95;9.13;;;;;;;;;;6145769;23;20239;-91
2022/11/26 12:43:46;;;;;;;16.42;8.45;;;;;;;;;;6144915;23;20173;-93
2022/11/26 12:46:59;;;;;;;21.83;8.00;;;;;;;;;;6146042;23;20161;-91
2022/11/26 12:50:13;;;;;;;18.58;8.48;;;;;;;;;;6146300;23;20173;-90
2022/11/26 12:53:34;;;;;;;22.23;8.82;;;;;;;;;;6146479;23;20268;-92
2022/11/26 12:56:43;;;;;;;30.00;10.63;;;;;;;;;;6143847;23;20219;-92
2022/11/26 12:59:50;;;;;;;21.70;9.23;;;;;;;;;;6144889;23;20216;-94
2022/11/26 13:02:56;;;;;;;24.60;9.32;;;;;;;;;;6146016;23;20177;-90
2022/11/26 13:06:04;;;;;;;17.80;8.52;;;;;;;;;;6146028;23;20190;-93
2022/11/26 13:12:45;;;;;;;26.70;8.82;;;;;;;;;;6130468;23;20237;-93
2022/11/26 13:19:26;;;;;;;22.08;8.68;;;;;;;;;;6129660;23;20197;-91
2022/11/26 13:22:52;;;;;;;22.23;7.72;;;;;;;;;;6146423;23;20612;-90
2022/11/26 13:26:05;;;;;;;23.25;9.23;;;;;;;;;;6128410;23;20193;-91
2022/11/26 13:29:34;;;;;;;20.08;9.60;;;;;;;;;;6144401;23;20165;-92
2022/11/26 13:32:59;;;;;;;26.88;9.68;;;;;;;;;;6144636;23;20221;-89
2022/11/26 13:36:28;;;;;;;23.05;10.40;;;;;;;;;;6109209;23;20299;-91
2022/11/26 13:39:40;;;;;;;20.23;9.27;;;;;;;;;;6142167;23;20173;-92
2022/11/26 13:42:55;;;;;;;23.85;9.70;;;;;;;;;;6143693;23;20196;-89
2022/11/26 13:46:04;;;;;;;23.27;9.40;;;;;;;;;;6142690;23;20628;-90
2022/11/26 13:49:12;;;;;;;16.15;7.05;;;;;;;;;;6144864;23;20169;-91
2022/11/26 13:52:22;;;;;;;14.38;6.35;;;;;;;;;;6144072;23;20168;-90
2022/11/26 13:55:29;;;;;;;17.25;6.75;;;;;;;;;;6126177;23;20237;-90
2022/11/26 13:58:44;;;;;;;13.43;6.60;;;;;;;;;;6142740;23;20201;-92
2022/11/26 14:01:50;;;;;;;25.67;7.45;;;;;;;;;;6126341;23;20156;-92
2022/11/26 14:05:07;;;;;;;11.27;5.57;;;;;;;;;;6142541;23;20169;-92
2022/11/26 14:08:32;;;;;;;13.02;5.93;;;;;;;;;;6143014;23;20161;-93
2022/11/26 14:11:56;;;;;;;14.13;6.68;;;;;;;;;;6141122;23;20297;-92
2022/11/26 14:15:02;;;;;;;20.00;7.32;;;;;;;;;;6142523;23;20266;-90
2022/11/26 14:18:09;;;;;;;14.80;7.13;;;;;;;;;;6140556;23;20181;-91
2022/11/26 14:21:15;;;;;;;18.30;7.55;;;;;;;;;;6141169;23;20181;-91
2022/11/26 14:24:49;;;;;;;14.45;6.47;;;;;;;;;;6142183;23;20262;-93
2022/11/26 14:27:58;;;;;;;28.15;10.68;;;;;;;;;;6142543;23;20196;-93
2022/11/26 14:34:32;;;;;;;20.90;8.15;;;;;;;;;;6125348;23;20158;-93
2022/11/26 14:37:38;;;;;;;18.08;8.18;;;;;;;;;;6142804;23;20213;-92
2022/11/26 14:40:44;;;;;;;16.02;8.82;;;;;;;;;;6124804;23;20173;-93
2022/11/26 14:44:05;;;;;;;23.80;9.25;;;;;;;;;;6142230;23;20227;-92
2022/11/26 14:47:15;;;;;;;32.42;11.55;;;;;;;;;;6142694;23;20188;-91
2022/11/26 14:50:22;;;;;;;26.70;10.15;;;;;;;;;;6142243;23;20173;-91
2022/11/26 14:53:29;;;;;;;25.52;9.45;;;;;;;;;;6143604;23;20201;-93
2022/11/26 14:56:40;;;;;;;23.40;9.35;;;;;;;;;;6142532;23;20191;-92
2022/11/26 15:03:32;;;;;;;21.42;10.10;;;;;;;;;;6125806;23;20217;-92
2022/11/26 15:06:41;;;;;;;23.83;10.55;;;;;;;;;;6144713;23;20161;-91
2022/11/26 15:09:50;;;;;;;24.20;11.75;;;;;;;;;;6141939;23;20689;-91
2022/11/26 15:12:59;;;;;;;25.17;11.48;;;;;;;;;;6143206;23;20161;-91
2022/11/26 15:16:22;;;;;;;25.23;10.43;;;;;;;;;;6143132;23;20164;-91
2022/11/26 15:19:32;;;;;;;20.73;10.27;;;;;;;;;;6143654;23;20214;-93
2022/11/26 15:22:39;;;;;;;26.75;11.63;;;;;;;;;;6126849;23;20165;-93
2022/11/26 15:25:50;;;;;;;31.33;12.00;;;;;;;;;;6144457;23;20173;-92
2022/11/26 15:28:56;;;;;;;25.50;11.00;;;;;;;;;;6140925;23;20154;-91
2022/11/26 15:32:02;;;;;;;29.73;11.25;;;;;;;;;;6143216;23;20218;-92
2022/11/26 15:35:16;;;;;;;22.73;10.68;;;;;;;;;;6143655;23;20184;-92
2022/11/26 15:38:26;;;;;;;28.35;10.88;;;;;;;;;;6142734;23;20189;-93
2022/11/26 15:41:45;;;;;;;30.40;11.18;;;;;;;;;;6145291;23;20217;-91
2022/11/26 15:44:51;;;;;;;31.63;12.13;;;;;;;;;;6143824;23;20198;-90
2022/11/26 15:52:21;;;;;;;31.88;13.43;;;;;;;;;;6143773;23;20158;-90
2022/11/26 15:55:29;;;;;;;33.83;12.20;;;;;;;;;;6144724;23;20169;-91
2022/11/26 15:58:36;;;;;;;30.50;12.45;;;;;;;;;;6141361;23;20214;-91
2022/11/26 16:01:43;;;;;;;30.58;12.45;;;;;;;;;;6140831;23;20189;-91
2022/11/26 16:04:50;;;;;;;30.38;13.35;;;;;;;;;;6139933;23;20225;-91
2022/11/26 16:08:01;;;;;;;32.10;13.15;;;;;;;;;;6141163;23;20625;-90
2022/11/26 16:11:08;;;;;;;25.08;11.70;;;;;;;;;;6123426;23;20249;-90
2022/11/26 16:14:23;;;;;;;32.53;12.18;;;;;;;;;;6141619;23;20189;-93
2022/11/26 16:17:28;;;;;;;31.35;11.60;;;;;;;;;;6123806;23;20242;-92
2022/11/26 16:20:34;;;;;;;26.48;11.60;;;;;;;;;;6141956;23;20161;-90
2022/11/26 16:23:41;;;;;;;34.15;12.70;;;;;;;;;;6124539;23;20210;-93
2022/11/26 16:26:53;;;;;;;35.13;14.10;;;;;;;;;;6140661;23;20552;-89
2022/11/26 16:30:01;;;;;;;30.88;12.48;;;;;;;;;;6123634;23;20195;-90
2022/11/26 16:33:06;;;;;;;29.10;12.05;;;;;;;;;;6141109;23;20229;-89
2022/11/26 16:36:25;;;;;;;30.52;12.18;;;;;;;;;;6138513;23;20173;-91
2022/11/26 16:39:33;;;;;;;28.00;11.38;;;;;;;;;;6141704;23;20178;-91
2022/11/26 16:42:38;;;;;;;35.75;13.73;;;;;;;;;;6141280;23;20173;-92
2022/11/26 16:50:01;;;;;;;32.72;14.50;;;;;;;;;;6141220;23;20164;-90
2022/11/26 16:53:09;;;;;;;31.40;14.30;;;;;;;;;;6125337;23;20201;-92
2022/11/26 16:56:19;;;;;;;26.75;11.80;;;;;;;;;;6141728;23;20189;-90
2022/11/26 16:59:27;;;;;;;17.63;7.88;;;;;;;;;;6122007;23;20192;-92
2022/11/26 17:02:33;;;;;;;20.08;8.45;;;;;;;;;;6141991;23;20149;-91
2022/11/26 17:05:39;;;;;;;22.88;9.80;;;;;;;;;;6139369;23;20658;-89
2022/11/26 17:08:44;;;;;;;21.23;9.73;;;;;;;;;;6141301;23;20173;-90
2022/11/26 17:11:51;;;;;;;20.90;10.18;;;;;;;;;;6140083;23;20528;-94
2022/11/26 17:14:58;;;;;;;25.55;10.88;;;;;;;;;;6140311;23;20177;-90
2022/11/26 17:18:05;;;;;;;26.20;10.40;;;;;;;;;;6140724;23;20189;-89
2022/11/26 17:21:10;;;;;;;28.40;10.43;;;;;;;;;;6140201;23;20169;-90
2022/11/26 17:24:15;;;;;;;24.27;11.48;;;;;;;;;;6144048;23;20176;-89
2022/11/26 17:27:23;;;;;;;26.40;11.57;;;;;;;;;;6144653;23;20196;-88
2022/11/26 17:30:28;;;;;;;21.60;10.10;;;;;;;;;;6140976;23;20620;-91
2022/11/26 17:33:34;;;;;;;19.27;10.40;;;;;;;;;;6142119;23;20165;-90
2022/11/26 17:36:40;;;;;;;27.15;10.07;;;;;;;;;;6140399;23;20189;-92
2022/11/26 17:39:45;;;;;;;57.40;20.83;;;;;;;;;;6139479;23;20218;-89
2022/11/26 17:42:53;;;;;;;28.17;12.45;;;;;;;;;;6141042;23;20173;-91
2022/11/26 17:46:16;;;;;;;24.67;10.07;;;;;;;;;;6140521;23;20208;-92
2022/11/26 17:49:23;;;;;;;42.97;18.50;;;;;;;;;;6121285;23;20177;-90
2022/11/26 17:52:28;;;;;;;26.10;13.00;;;;;;;;;;6139723;23;20234;-90
2022/11/26 17:55:34;;;;;;;26.53;11.70;;;;;;;;;;6141827;23;20172;-92
2022/11/26 17:58:42;;;;;;;175.50;68.13;;;;;;;;;;6140575;23;20287;-92
2022/11/26 18:01:48;;;;;;;46.67;19.83;;;;;;;;;;6123159;23;20233;-91
2022/11/26 18:04:54;;;;;;;28.53;13.70;;;;;;;;;;6139513;23;20262;-91
2022/11/26 18:07:59;;;;;;;25.13;12.10;;;;;;;;;;6140754;23;20176;-92
2022/11/26 18:11:05;;;;;;;27.20;10.93;;;;;;;;;;6141405;23;20220;-90
2022/11/26 18:14:21;;;;;;;26.23;12.67;;;;;;;;;;6141266;23;20286;-91
2022/11/26 18:17:27;;;;;;;29.70;10.90;;;;;;;;;;6138889;23;20170;-91
2022/11/26 18:20:32;;;;;;;27.30;12.27;;;;;;;;;;6139370;23;20173;-89
2022/11/26 18:23:37;;;;;;;29.23;12.20;;;;;;;;;;6141643;23;20189;-90
2022/11/26 18:26:42;;;;;;;24.17;12.70;;;;;;;;;;6140315;23;20245;-89
2022/11/26 18:29:49;;;;;;;24.80;11.23;;;;;;;;;;6140517;23;20178;-91
2022/11/26 18:32:54;;;;;;;25.00;11.67;;;;;;;;;;6139143;23;20173;-91
2022/11/26 18:35:59;;;;;;;29.30;12.40;;;;;;;;;;6138632;23;20173;-90
2022/11/26 18:39:06;;;;;;;24.20;11.70;;;;;;;;;;6139412;23;20181;-89
2022/11/26 18:42:11;;;;;;;27.30;13.00;;;;;;;;;;6140694;23;20160;-91
2022/11/26 18:45:18;;;;;;;35.50;15.80;;;;;;;;;;6124276;23;20288;-91
2022/11/26 18:48:24;;;;;;;32.03;14.13;;;;;;;;;;6141126;23;20225;-89
2022/11/26 18:51:33;;;;;;;38.40;16.73;;;;;;;;;;6139798;23;20165;-90
2022/11/26 18:54:38;;;;;;;34.43;15.13;;;;;;;;;;6139196;23;20149;-90
2022/11/26 18:57:43;;;;;;;35.97;15.20;;;;;;;;;;6139493;23;20145;-90
2022/11/26 19:00:53;;;;;;;36.80;15.87;;;;;;;;;;6140695;23;20177;-91
2022/11/26 19:03:58;;;;;;;33.50;16.53;;;;;;;;;;6139985;23;20172;-92
2022/11/26 19:07:04;;;;;;;29.20;13.07;;;;;;;;;;6140752;23;20201;-88